sensor_id;sensor_type;location;lat;lon;timestamp;P1;durP1;ratioP1;P2;durP2;ratioP2
71464;SDS011;59274;49.874;9.154;2022-11-15T00:02:06;13.53;;;6.20;;
71464;SDS011;59274;49.874;9.154;2022-11-15T00:04:32;11.13;;;5.10;;
71464;SDS011;59274;49.874;9.154;2022-11-15T00:06:57;11.45;;;5.63;;
71464;SDS011;59274;49.874;9.154;2022-11-15T00:09:23;9.90;;;5.20;;
71464;SDS011;59274;49.874;9.154;2022-11-15T00:11:48;10.97;;;4.87;;
71464;SDS011;59274;49.874;9.154;2022-11-15T00:14:13;11.80;;;5.10;;
71464;SDS011;59274;49.874;9.154;2022-11-15T00:16:39;10.73;;;5.43;;
71464;SDS011;59274;49.874;9.154;2022-11-15T00:19:04;11.30;;;5.43;;
71464;SDS011;59274;49.874;9.154;2022-11-15T00:21:29;10.43;;;5.17;;
71464;SDS011;59274;49.874;9.154;2022-11-15T00:23:55;9.60;;;5.00;;
71464;SDS011;59274;49.874;9.154;2022-11-15T00:26:20;11.23;;;5.07;;
71464;SDS011;59274;49.874;9.154;2022-11-15T00:28:46;13.03;;;5.50;;
71464;SDS011;59274;49.874;9.154;2022-11-15T00:31:12;12.10;;;5.45;;
71464;SDS011;59274;49.874;9.154;2022-11-15T00:33:39;12.13;;;5.40;;
71464;SDS011;59274;49.874;9.154;2022-11-15T00:36:05;11.55;;;5.38;;
71464;SDS011;59274;49.874;9.154;2022-11-15T00:38:34;11.43;;;5.30;;
71464;SDS011;59274;49.874;9.154;2022-11-15T00:41:01;9.45;;;4.75;;
71464;SDS011;59274;49.874;9.154;2022-11-15T00:43:27;10.63;;;4.70;;
71464;SDS011;59274;49.874;9.154;2022-11-15T00:45:53;12.03;;;5.00;;
71464;SDS011;59274;49.874;9.154;2022-11-15T00:48:18;12.13;;;5.20;;
71464;SDS011;59274;49.874;9.154;2022-11-15T00:50:44;11.25;;;5.30;;
71464;SDS011;59274;49.874;9.154;2022-11-15T00:53:09;11.10;;;5.50;;
71464;SDS011;59274;49.874;9.154;2022-11-15T00:55:35;10.00;;;4.63;;
71464;SDS011;59274;49.874;9.154;2022-11-15T00:58:00;12.85;;;5.60;;
71464;SDS011;59274;49.874;9.154;2022-11-15T01:00:26;10.27;;;5.40;;
71464;SDS011;59274;49.874;9.154;2022-11-15T01:02:51;13.30;;;5.50;;
71464;SDS011;59274;49.874;9.154;2022-11-15T01:05:17;12.40;;;5.80;;
71464;SDS011;59274;49.874;9.154;2022-11-15T01:07:42;13.50;;;6.90;;
71464;SDS011;59274;49.874;9.154;2022-11-15T01:10:08;12.27;;;6.27;;
71464;SDS011;59274;49.874;9.154;2022-11-15T01:12:34;14.57;;;5.88;;
71464;SDS011;59274;49.874;9.154;2022-11-15T01:14:59;14.10;;;6.17;;
71464;SDS011;59274;49.874;9.154;2022-11-15T01:17:24;17.30;;;6.90;;
71464;SDS011;59274;49.874;9.154;2022-11-15T01:19:50;13.13;;;6.60;;
71464;SDS011;59274;49.874;9.154;2022-11-15T01:22:16;13.75;;;7.00;;
71464;SDS011;59274;49.874;9.154;2022-11-15T01:24:41;14.77;;;7.32;;
71464;SDS011;59274;49.874;9.154;2022-11-15T01:27:06;11.30;;;5.87;;
71464;SDS011;59274;49.874;9.154;2022-11-15T01:29:32;12.45;;;4.97;;
71464;SDS011;59274;49.874;9.154;2022-11-15T01:31:58;12.57;;;5.83;;
71464;SDS011;59274;49.874;9.154;2022-11-15T01:34:23;10.77;;;5.80;;
71464;SDS011;59274;49.874;9.154;2022-11-15T01:36:48;12.37;;;5.17;;
71464;SDS011;59274;49.874;9.154;2022-11-15T01:39:14;11.70;;;5.40;;
71464;SDS011;59274;49.874;9.154;2022-11-15T01:41:40;13.15;;;5.53;;
71464;SDS011;59274;49.874;9.154;2022-11-15T01:46:53;14.40;;;6.38;;
71464;SDS011;59274;49.874;9.154;2022-11-15T01:49:19;14.80;;;6.97;;
71464;SDS011;59274;49.874;9.154;2022-11-15T01:51:46;14.30;;;7.18;;
71464;SDS011;59274;49.874;9.154;2022-11-15T01:54:13;13.33;;;6.27;;
71464;SDS011;59274;49.874;9.154;2022-11-15T01:56:44;14.23;;;6.65;;
71464;SDS011;59274;49.874;9.154;2022-11-15T01:59:32;14.55;;;6.13;;
71464;SDS011;59274;49.874;9.154;2022-11-15T02:01:59;12.40;;;6.30;;
71464;SDS011;59274;49.874;9.154;2022-11-15T02:04:26;12.32;;;6.25;;
71464;SDS011;59274;49.874;9.154;2022-11-15T02:06:54;12.50;;;6.15;;
71464;SDS011;59274;49.874;9.154;2022-11-15T02:09:19;15.63;;;6.22;;
71464;SDS011;59274;49.874;9.154;2022-11-15T02:11:45;15.10;;;5.97;;
71464;SDS011;59274;49.874;9.154;2022-11-15T02:14:12;15.77;;;6.32;;
71464;SDS011;59274;49.874;9.154;2022-11-15T02:27:59;11.43;;;6.00;;
71464;SDS011;59274;49.874;9.154;2022-11-15T02:31:00;10.63;;;5.30;;
71464;SDS011;59274;49.874;9.154;2022-11-15T02:36:11;9.93;;;5.10;;
71464;SDS011;59274;49.874;9.154;2022-11-15T02:38:53;10.60;;;4.78;;
71464;SDS011;59274;49.874;9.154;2022-11-15T02:41:26;10.02;;;4.82;;
71464;SDS011;59274;49.874;9.154;2022-11-15T02:44:21;12.27;;;5.43;;
71464;SDS011;59274;49.874;9.154;2022-11-15T02:46:52;10.15;;;4.82;;
71464;SDS011;59274;49.874;9.154;2022-11-15T02:49:45;12.73;;;4.70;;
71464;SDS011;59274;49.874;9.154;2022-11-15T02:52:16;13.52;;;5.47;;
71464;SDS011;59274;49.874;9.154;2022-11-15T02:54:43;8.90;;;4.57;;
71464;SDS011;59274;49.874;9.154;2022-11-15T02:57:19;9.20;;;3.90;;
71464;SDS011;59274;49.874;9.154;2022-11-15T03:00:12;10.27;;;4.35;;
71464;SDS011;59274;49.874;9.154;2022-11-15T03:10:45;10.57;;;4.30;;
71464;SDS011;59274;49.874;9.154;2022-11-15T03:16:09;11.13;;;4.30;;
71464;SDS011;59274;49.874;9.154;2022-11-15T03:18:45;9.98;;;4.78;;
71464;SDS011;59274;49.874;9.154;2022-11-15T03:21:15;10.38;;;4.72;;
71464;SDS011;59274;49.874;9.154;2022-11-15T03:23:44;10.87;;;5.10;;
71464;SDS011;59274;49.874;9.154;2022-11-15T03:26:12;9.52;;;5.07;;
71464;SDS011;59274;49.874;9.154;2022-11-15T03:28:46;11.27;;;5.10;;
71464;SDS011;59274;49.874;9.154;2022-11-15T03:31:19;9.95;;;4.85;;
71464;SDS011;59274;49.874;9.154;2022-11-15T03:34:07;9.95;;;4.93;;
71464;SDS011;59274;49.874;9.154;2022-11-15T03:36:39;11.53;;;4.90;;
71464;SDS011;59274;49.874;9.154;2022-11-15T03:39:05;10.05;;;4.45;;
71464;SDS011;59274;49.874;9.154;2022-11-15T03:41:38;8.67;;;4.33;;
71464;SDS011;59274;49.874;9.154;2022-11-15T03:47:02;9.57;;;4.57;;
71464;SDS011;59274;49.874;9.154;2022-11-15T03:49:40;10.43;;;4.68;;
71464;SDS011;59274;49.874;9.154;2022-11-15T03:52:10;10.30;;;4.75;;
71464;SDS011;59274;49.874;9.154;2022-11-15T03:54:36;11.70;;;5.80;;
71464;SDS011;59274;49.874;9.154;2022-11-15T03:57:02;14.27;;;7.18;;
71464;SDS011;59274;49.874;9.154;2022-11-15T03:59:27;12.87;;;6.90;;
71464;SDS011;59274;49.874;9.154;2022-11-15T04:01:53;13.87;;;6.50;;
71464;SDS011;59274;49.874;9.154;2022-11-15T04:04:18;14.18;;;6.65;;
71464;SDS011;59274;49.874;9.154;2022-11-15T04:06:44;13.07;;;6.73;;
71464;SDS011;59274;49.874;9.154;2022-11-15T04:09:09;14.17;;;6.03;;
71464;SDS011;59274;49.874;9.154;2022-11-15T04:11:34;12.87;;;6.40;;
71464;SDS011;59274;49.874;9.154;2022-11-15T04:14:00;10.73;;;5.80;;
71464;SDS011;59274;49.874;9.154;2022-11-15T04:16:25;11.48;;;5.68;;
71464;SDS011;59274;49.874;9.154;2022-11-15T04:18:51;14.73;;;5.60;;
71464;SDS011;59274;49.874;9.154;2022-11-15T04:21:36;12.02;;;5.40;;
71464;SDS011;59274;49.874;9.154;2022-11-15T04:24:20;10.93;;;4.83;;
71464;SDS011;59274;49.874;9.154;2022-11-15T04:26:45;11.02;;;5.75;;
71464;SDS011;59274;49.874;9.154;2022-11-15T04:29:11;11.63;;;5.37;;
71464;SDS011;59274;49.874;9.154;2022-11-15T04:31:55;11.05;;;5.32;;
71464;SDS011;59274;49.874;9.154;2022-11-15T04:34:20;10.93;;;5.50;;
71464;SDS011;59274;49.874;9.154;2022-11-15T04:36:46;11.30;;;5.50;;
71464;SDS011;59274;49.874;9.154;2022-11-15T04:39:30;8.90;;;4.63;;
71464;SDS011;59274;49.874;9.154;2022-11-15T04:41:55;11.97;;;5.03;;
71464;SDS011;59274;49.874;9.154;2022-11-15T04:44:21;9.77;;;4.77;;
71464;SDS011;59274;49.874;9.154;2022-11-15T04:46:46;9.97;;;5.37;;
71464;SDS011;59274;49.874;9.154;2022-11-15T04:49:11;10.00;;;4.90;;
71464;SDS011;59274;49.874;9.154;2022-11-15T04:51:37;9.70;;;4.80;;
71464;SDS011;59274;49.874;9.154;2022-11-15T04:54:02;10.93;;;4.40;;
71464;SDS011;59274;49.874;9.154;2022-11-15T04:56:28;12.60;;;5.47;;
71464;SDS011;59274;49.874;9.154;2022-11-15T04:58:53;14.88;;;5.82;;
71464;SDS011;59274;49.874;9.154;2022-11-15T05:01:18;13.05;;;6.43;;
71464;SDS011;59274;49.874;9.154;2022-11-15T05:03:44;11.30;;;5.70;;
71464;SDS011;59274;49.874;9.154;2022-11-15T05:06:29;11.25;;;5.47;;
71464;SDS011;59274;49.874;9.154;2022-11-15T05:08:54;12.40;;;5.50;;
71464;SDS011;59274;49.874;9.154;2022-11-15T05:11:21;12.35;;;5.78;;
71464;SDS011;59274;49.874;9.154;2022-11-15T05:13:47;11.73;;;5.70;;
71464;SDS011;59274;49.874;9.154;2022-11-15T05:16:12;11.85;;;5.47;;
71464;SDS011;59274;49.874;9.154;2022-11-15T05:18:38;11.27;;;5.30;;
71464;SDS011;59274;49.874;9.154;2022-11-15T05:21:07;11.27;;;5.55;;
71464;SDS011;59274;49.874;9.154;2022-11-15T05:23:34;14.00;;;6.00;;
71464;SDS011;59274;49.874;9.154;2022-11-15T05:26:00;13.33;;;5.80;;
71464;SDS011;59274;49.874;9.154;2022-11-15T05:28:27;11.50;;;5.05;;
71464;SDS011;59274;49.874;9.154;2022-11-15T05:30:52;11.30;;;5.53;;
71464;SDS011;59274;49.874;9.154;2022-11-15T05:33:18;10.80;;;4.60;;
71464;SDS011;59274;49.874;9.154;2022-11-15T05:35:48;9.88;;;5.00;;
71464;SDS011;59274;49.874;9.154;2022-11-15T05:38:21;12.48;;;4.80;;
71464;SDS011;59274;49.874;9.154;2022-11-15T05:40:46;11.53;;;5.23;;
71464;SDS011;59274;49.874;9.154;2022-11-15T05:43:12;15.40;;;6.35;;
71464;SDS011;59274;49.874;9.154;2022-11-15T05:45:37;11.60;;;5.43;;
71464;SDS011;59274;49.874;9.154;2022-11-15T05:48:04;11.40;;;5.67;;
71464;SDS011;59274;49.874;9.154;2022-11-15T05:50:33;12.23;;;5.82;;
71464;SDS011;59274;49.874;9.154;2022-11-15T05:53:00;15.23;;;7.55;;
71464;SDS011;59274;49.874;9.154;2022-11-15T05:55:27;12.50;;;6.17;;
71464;SDS011;59274;49.874;9.154;2022-11-15T05:57:52;12.63;;;5.90;;
71464;SDS011;59274;49.874;9.154;2022-11-15T06:00:18;11.80;;;5.77;;
71464;SDS011;59274;49.874;9.154;2022-11-15T06:02:43;11.80;;;5.60;;
71464;SDS011;59274;49.874;9.154;2022-11-15T06:05:09;16.17;;;7.50;;
71464;SDS011;59274;49.874;9.154;2022-11-15T06:07:34;16.50;;;7.40;;
71464;SDS011;59274;49.874;9.154;2022-11-15T06:10:00;13.60;;;6.53;;
71464;SDS011;59274;49.874;9.154;2022-11-15T06:12:25;13.80;;;6.00;;
71464;SDS011;59274;49.874;9.154;2022-11-15T06:14:51;13.40;;;6.40;;
71464;SDS011;59274;49.874;9.154;2022-11-15T06:17:16;12.27;;;5.70;;
71464;SDS011;59274;49.874;9.154;2022-11-15T06:19:41;13.53;;;6.43;;
71464;SDS011;59274;49.874;9.154;2022-11-15T06:22:07;12.82;;;6.32;;
71464;SDS011;59274;49.874;9.154;2022-11-15T06:24:34;12.57;;;6.20;;
71464;SDS011;59274;49.874;9.154;2022-11-15T06:26:59;15.97;;;6.63;;
71464;SDS011;59274;49.874;9.154;2022-11-15T06:29:25;18.77;;;7.60;;
71464;SDS011;59274;49.874;9.154;2022-11-15T06:31:50;20.40;;;8.73;;
71464;SDS011;59274;49.874;9.154;2022-11-15T06:34:16;36.13;;;17.65;;
71464;SDS011;59274;49.874;9.154;2022-11-15T06:36:41;16.73;;;8.37;;
71464;SDS011;59274;49.874;9.154;2022-11-15T06:39:08;34.08;;;18.25;;
71464;SDS011;59274;49.874;9.154;2022-11-15T06:41:34;22.53;;;11.07;;
71464;SDS011;59274;49.874;9.154;2022-11-15T06:44:00;25.38;;;11.07;;
71464;SDS011;59274;49.874;9.154;2022-11-15T06:46:25;22.20;;;11.80;;
71464;SDS011;59274;49.874;9.154;2022-11-15T06:48:51;17.37;;;9.80;;
71464;SDS011;59274;49.874;9.154;2022-11-15T06:51:17;16.65;;;7.55;;
71464;SDS011;59274;49.874;9.154;2022-11-15T06:53:43;18.23;;;8.90;;
71464;SDS011;59274;49.874;9.154;2022-11-15T06:56:08;23.05;;;11.40;;
71464;SDS011;59274;49.874;9.154;2022-11-15T06:58:34;17.70;;;9.00;;
71464;SDS011;59274;49.874;9.154;2022-11-15T07:01:03;14.83;;;7.53;;
71464;SDS011;59274;49.874;9.154;2022-11-15T07:03:30;13.35;;;6.93;;
71464;SDS011;59274;49.874;9.154;2022-11-15T07:05:56;11.38;;;6.00;;
71464;SDS011;59274;49.874;9.154;2022-11-15T07:08:22;15.97;;;5.83;;
71464;SDS011;59274;49.874;9.154;2022-11-15T07:10:49;12.95;;;6.35;;
71464;SDS011;59274;49.874;9.154;2022-11-15T07:13:15;13.43;;;5.88;;
71464;SDS011;59274;49.874;9.154;2022-11-15T07:15:41;10.97;;;6.00;;
71464;SDS011;59274;49.874;9.154;2022-11-15T07:18:06;11.93;;;5.85;;
71464;SDS011;59274;49.874;9.154;2022-11-15T07:20:31;13.37;;;6.17;;
71464;SDS011;59274;49.874;9.154;2022-11-15T07:23:03;12.07;;;5.70;;
71464;SDS011;59274;49.874;9.154;2022-11-15T07:25:29;11.55;;;5.05;;
71464;SDS011;59274;49.874;9.154;2022-11-15T07:27:56;11.18;;;5.43;;
71464;SDS011;59274;49.874;9.154;2022-11-15T07:30:24;16.23;;;5.93;;
71464;SDS011;59274;49.874;9.154;2022-11-15T07:35:20;13.23;;;6.90;;
71464;SDS011;59274;49.874;9.154;2022-11-15T07:37:52;12.17;;;5.80;;
71464;SDS011;59274;49.874;9.154;2022-11-15T07:40:25;13.52;;;6.68;;
71464;SDS011;59274;49.874;9.154;2022-11-15T07:42:52;12.00;;;6.15;;
71464;SDS011;59274;49.874;9.154;2022-11-15T07:45:17;12.20;;;6.30;;
71464;SDS011;59274;49.874;9.154;2022-11-15T07:47:47;11.25;;;6.03;;
71464;SDS011;59274;49.874;9.154;2022-11-15T07:50:13;13.55;;;6.50;;
71464;SDS011;59274;49.874;9.154;2022-11-15T07:52:39;14.47;;;6.60;;
71464;SDS011;59274;49.874;9.154;2022-11-15T07:55:04;13.50;;;6.40;;
71464;SDS011;59274;49.874;9.154;2022-11-15T07:57:30;13.80;;;6.97;;
71464;SDS011;59274;49.874;9.154;2022-11-15T07:59:56;12.93;;;6.80;;
71464;SDS011;59274;49.874;9.154;2022-11-15T08:02:21;15.27;;;6.35;;
71464;SDS011;59274;49.874;9.154;2022-11-15T08:04:47;12.70;;;6.03;;
71464;SDS011;59274;49.874;9.154;2022-11-15T08:07:12;12.73;;;6.33;;
71464;SDS011;59274;49.874;9.154;2022-11-15T08:09:38;14.05;;;5.72;;
71464;SDS011;59274;49.874;9.154;2022-11-15T08:12:03;12.83;;;6.03;;
71464;SDS011;59274;49.874;9.154;2022-11-15T08:14:29;11.45;;;6.13;;
71464;SDS011;59274;49.874;9.154;2022-11-15T08:16:54;11.17;;;4.90;;
71464;SDS011;59274;49.874;9.154;2022-11-15T08:19:20;11.57;;;5.43;;
71464;SDS011;59274;49.874;9.154;2022-11-15T08:21:46;14.93;;;5.00;;
71464;SDS011;59274;49.874;9.154;2022-11-15T08:24:12;10.33;;;4.63;;
71464;SDS011;59274;49.874;9.154;2022-11-15T08:26:38;9.95;;;4.47;;
71464;SDS011;59274;49.874;9.154;2022-11-15T08:29:04;10.73;;;4.28;;
71464;SDS011;59274;49.874;9.154;2022-11-15T08:31:30;9.53;;;4.30;;
71464;SDS011;59274;49.874;9.154;2022-11-15T08:33:55;8.60;;;4.50;;
71464;SDS011;59274;49.874;9.154;2022-11-15T08:36:21;7.70;;;3.85;;
71464;SDS011;59274;49.874;9.154;2022-11-15T08:38:46;8.77;;;4.00;;
71464;SDS011;59274;49.874;9.154;2022-11-15T08:41:13;7.47;;;2.87;;
71464;SDS011;59274;49.874;9.154;2022-11-15T08:43:47;10.48;;;3.65;;
71464;SDS011;59274;49.874;9.154;2022-11-15T08:46:12;9.00;;;4.13;;
71464;SDS011;59274;49.874;9.154;2022-11-15T08:48:38;10.25;;;4.25;;
71464;SDS011;59274;49.874;9.154;2022-11-15T08:51:04;8.70;;;4.40;;
71464;SDS011;59274;49.874;9.154;2022-11-15T08:53:30;8.95;;;4.22;;
71464;SDS011;59274;49.874;9.154;2022-11-15T08:55:55;9.20;;;4.40;;
71464;SDS011;59274;49.874;9.154;2022-11-15T08:58:21;9.73;;;3.90;;
71464;SDS011;59274;49.874;9.154;2022-11-15T09:00:47;9.40;;;4.20;;
71464;SDS011;59274;49.874;9.154;2022-11-15T09:03:12;9.53;;;4.10;;
71464;SDS011;59274;49.874;9.154;2022-11-15T09:05:37;10.30;;;4.37;;
71464;SDS011;59274;49.874;9.154;2022-11-15T09:08:03;10.93;;;4.20;;
71464;SDS011;59274;49.874;9.154;2022-11-15T09:10:29;9.32;;;4.68;;
71464;SDS011;59274;49.874;9.154;2022-11-15T09:12:56;10.37;;;4.10;;
71464;SDS011;59274;49.874;9.154;2022-11-15T09:15:22;10.15;;;4.35;;
71464;SDS011;59274;49.874;9.154;2022-11-15T09:17:48;10.40;;;4.50;;
71464;SDS011;59274;49.874;9.154;2022-11-15T09:20:13;9.40;;;4.20;;
71464;SDS011;59274;49.874;9.154;2022-11-15T09:22:39;10.93;;;4.70;;
71464;SDS011;59274;49.874;9.154;2022-11-15T09:25:06;12.77;;;5.57;;
71464;SDS011;59274;49.874;9.154;2022-11-15T09:27:32;11.40;;;4.97;;
71464;SDS011;59274;49.874;9.154;2022-11-15T09:29:57;10.95;;;4.70;;
71464;SDS011;59274;49.874;9.154;2022-11-15T09:32:23;10.70;;;3.97;;
71464;SDS011;59274;49.874;9.154;2022-11-15T09:34:49;7.70;;;3.60;;
71464;SDS011;59274;49.874;9.154;2022-11-15T09:37:15;8.63;;;3.77;;
71464;SDS011;59274;49.874;9.154;2022-11-15T09:39:41;10.13;;;3.63;;
71464;SDS011;59274;49.874;9.154;2022-11-15T09:49:53;8.50;;;3.50;;
71464;SDS011;59274;49.874;9.154;2022-11-15T09:52:23;7.65;;;3.20;;
71464;SDS011;59274;49.874;9.154;2022-11-15T09:54:50;7.75;;;3.25;;
71464;SDS011;59274;49.874;9.154;2022-11-15T09:57:21;7.22;;;3.13;;
71464;SDS011;59274;49.874;9.154;2022-11-15T10:04:52;7.78;;;3.30;;
71464;SDS011;59274;49.874;9.154;2022-11-15T10:07:21;7.05;;;3.20;;
71464;SDS011;59274;49.874;9.154;2022-11-15T10:10:09;8.00;;;3.50;;
71464;SDS011;59274;49.874;9.154;2022-11-15T10:12:44;11.87;;;3.60;;
71464;SDS011;59274;49.874;9.154;2022-11-15T10:15:14;8.43;;;4.07;;
71464;SDS011;59274;49.874;9.154;2022-11-15T10:20:16;9.83;;;4.27;;
71464;SDS011;59274;49.874;9.154;2022-11-15T10:22:46;8.23;;;3.40;;
71464;SDS011;59274;49.874;9.154;2022-11-15T10:25:16;10.25;;;3.88;;
71464;SDS011;59274;49.874;9.154;2022-11-15T10:27:43;10.00;;;3.75;;
71464;SDS011;59274;49.874;9.154;2022-11-15T10:30:14;8.02;;;3.55;;
71464;SDS011;59274;49.874;9.154;2022-11-15T10:32:42;9.07;;;3.43;;
71464;SDS011;59274;49.874;9.154;2022-11-15T10:35:25;9.98;;;3.80;;
71464;SDS011;59274;49.874;9.154;2022-11-15T10:38:06;8.50;;;3.80;;
71464;SDS011;59274;49.874;9.154;2022-11-15T10:40:34;8.35;;;3.45;;
71464;SDS011;59274;49.874;9.154;2022-11-15T10:43:04;10.52;;;3.63;;
71464;SDS011;59274;49.874;9.154;2022-11-15T10:45:36;9.00;;;3.77;;
71464;SDS011;59274;49.874;9.154;2022-11-15T10:48:36;8.10;;;3.78;;
71464;SDS011;59274;49.874;9.154;2022-11-15T10:50:55;10.85;;;4.72;;
71464;SDS011;59274;49.874;9.154;2022-11-15T10:53:26;10.05;;;4.68;;
71464;SDS011;59274;49.874;9.154;2022-11-15T10:55:53;10.65;;;4.38;;
71464;SDS011;59274;49.874;9.154;2022-11-15T11:01:08;9.88;;;4.70;;
71464;SDS011;59274;49.874;9.154;2022-11-15T11:03:37;12.02;;;5.30;;
71464;SDS011;59274;49.874;9.154;2022-11-15T11:06:04;11.38;;;5.45;;
71464;SDS011;59274;49.874;9.154;2022-11-15T11:08:30;12.50;;;4.90;;
71464;SDS011;59274;49.874;9.154;2022-11-15T11:10:57;10.43;;;5.20;;
71464;SDS011;59274;49.874;9.154;2022-11-15T11:13:28;13.20;;;5.50;;
71464;SDS011;59274;49.874;9.154;2022-11-15T11:16:08;10.27;;;5.00;;
71464;SDS011;59274;49.874;9.154;2022-11-15T11:24:34;12.37;;;5.57;;
71464;SDS011;59274;49.874;9.154;2022-11-15T11:27:28;12.80;;;5.00;;
71464;SDS011;59274;49.874;9.154;2022-11-15T11:38:15;10.30;;;5.13;;
71464;SDS011;59274;49.874;9.154;2022-11-15T11:43:59;14.75;;;5.05;;
71464;SDS011;59274;49.874;9.154;2022-11-15T11:46:49;11.95;;;4.88;;
71464;SDS011;59274;49.874;9.154;2022-11-15T11:54:38;10.40;;;4.70;;
71464;SDS011;59274;49.874;9.154;2022-11-15T11:57:56;12.32;;;5.05;;
71464;SDS011;59274;49.874;9.154;2022-11-15T12:00:23;10.27;;;4.68;;
71464;SDS011;59274;49.874;9.154;2022-11-15T12:05:25;8.57;;;4.23;;
71464;SDS011;59274;49.874;9.154;2022-11-15T12:07:59;11.38;;;4.30;;
71464;SDS011;59274;49.874;9.154;2022-11-15T12:10:36;10.13;;;4.60;;
71464;SDS011;59274;49.874;9.154;2022-11-15T12:13:06;10.52;;;4.32;;
71464;SDS011;59274;49.874;9.154;2022-11-15T12:15:39;10.18;;;4.82;;
71464;SDS011;59274;49.874;9.154;2022-11-15T12:18:12;10.77;;;4.80;;
71464;SDS011;59274;49.874;9.154;2022-11-15T12:20:40;11.70;;;4.80;;
71464;SDS011;59274;49.874;9.154;2022-11-15T12:23:17;9.45;;;4.65;;
71464;SDS011;59274;49.874;9.154;2022-11-15T12:25:57;8.75;;;4.50;;
71464;SDS011;59274;49.874;9.154;2022-11-15T12:28:41;9.43;;;4.00;;
71464;SDS011;59274;49.874;9.154;2022-11-15T12:33:55;7.78;;;3.80;;
71464;SDS011;59274;49.874;9.154;2022-11-15T12:41:33;7.97;;;3.70;;
71464;SDS011;59274;49.874;9.154;2022-11-15T12:44:00;7.75;;;3.47;;
71464;SDS011;59274;49.874;9.154;2022-11-15T12:59:51;7.90;;;3.72;;
71464;SDS011;59274;49.874;9.154;2022-11-15T13:13:00;7.03;;;3.10;;
71464;SDS011;59274;49.874;9.154;2022-11-15T13:18:18;7.20;;;3.35;;
71464;SDS011;59274;49.874;9.154;2022-11-15T13:20:52;7.40;;;3.03;;
71464;SDS011;59274;49.874;9.154;2022-11-15T13:23:18;6.53;;;2.77;;
71464;SDS011;59274;49.874;9.154;2022-11-15T13:33:50;6.75;;;2.83;;
71464;SDS011;59274;49.874;9.154;2022-11-15T13:36:24;6.93;;;2.88;;
71464;SDS011;59274;49.874;9.154;2022-11-15T13:41:22;5.88;;;2.50;;
71464;SDS011;59274;49.874;9.154;2022-11-15T13:43:50;6.85;;;2.40;;
71464;SDS011;59274;49.874;9.154;2022-11-15T13:46:20;6.90;;;2.20;;
71464;SDS011;59274;49.874;9.154;2022-11-15T13:49:01;5.05;;;2.10;;
71464;SDS011;59274;49.874;9.154;2022-11-15T13:56:39;7.40;;;2.97;;
71464;SDS011;59274;49.874;9.154;2022-11-15T13:59:14;7.50;;;2.83;;
71464;SDS011;59274;49.874;9.154;2022-11-15T14:01:51;6.88;;;3.10;;
71464;SDS011;59274;49.874;9.154;2022-11-15T14:04:19;6.50;;;3.03;;
71464;SDS011;59274;49.874;9.154;2022-11-15T14:06:48;5.85;;;2.85;;
71464;SDS011;59274;49.874;9.154;2022-11-15T14:14:57;8.45;;;3.20;;
71464;SDS011;59274;49.874;9.154;2022-11-15T14:19:56;7.53;;;3.17;;
71464;SDS011;59274;49.874;9.154;2022-11-15T14:22:23;7.20;;;3.10;;
71464;SDS011;59274;49.874;9.154;2022-11-15T14:27:31;7.78;;;3.10;;
71464;SDS011;59274;49.874;9.154;2022-11-15T14:29:57;5.32;;;2.45;;
71464;SDS011;59274;49.874;9.154;2022-11-15T14:32:24;7.20;;;3.00;;
71464;SDS011;59274;49.874;9.154;2022-11-15T14:34:59;8.90;;;2.80;;
71464;SDS011;59274;49.874;9.154;2022-11-15T14:37:26;13.27;;;4.63;;
71464;SDS011;59274;49.874;9.154;2022-11-15T14:39:56;9.50;;;3.33;;
71464;SDS011;59274;49.874;9.154;2022-11-15T14:42:22;7.78;;;2.60;;
71464;SDS011;59274;49.874;9.154;2022-11-15T14:44:48;8.67;;;3.57;;
71464;SDS011;59274;49.874;9.154;2022-11-15T14:47:14;9.18;;;3.60;;
71464;SDS011;59274;49.874;9.154;2022-11-15T14:49:40;7.65;;;2.90;;
71464;SDS011;59274;49.874;9.154;2022-11-15T14:52:22;7.60;;;3.33;;
71464;SDS011;59274;49.874;9.154;2022-11-15T14:54:53;4.88;;;2.40;;
71464;SDS011;59274;49.874;9.154;2022-11-15T14:57:20;5.78;;;2.67;;
71464;SDS011;59274;49.874;9.154;2022-11-15T14:59:45;6.03;;;2.60;;
71464;SDS011;59274;49.874;9.154;2022-11-15T15:02:15;5.83;;;2.00;;
71464;SDS011;59274;49.874;9.154;2022-11-15T15:04:44;5.40;;;2.40;;
71464;SDS011;59274;49.874;9.154;2022-11-15T15:07:10;5.57;;;2.60;;
71464;SDS011;59274;49.874;9.154;2022-11-15T15:09:35;9.35;;;2.47;;
71464;SDS011;59274;49.874;9.154;2022-11-15T15:12:00;8.33;;;2.37;;
71464;SDS011;59274;49.874;9.154;2022-11-15T15:14:26;6.63;;;2.40;;
71464;SDS011;59274;49.874;9.154;2022-11-15T15:16:51;6.43;;;2.20;;
71464;SDS011;59274;49.874;9.154;2022-11-15T15:19:17;6.45;;;2.53;;
71464;SDS011;59274;49.874;9.154;2022-11-15T15:21:42;7.63;;;2.97;;
71464;SDS011;59274;49.874;9.154;2022-11-15T15:24:11;5.70;;;2.40;;
71464;SDS011;59274;49.874;9.154;2022-11-15T15:26:41;6.55;;;2.88;;
71464;SDS011;59274;49.874;9.154;2022-11-15T15:29:08;7.77;;;2.80;;
71464;SDS011;59274;49.874;9.154;2022-11-15T15:31:34;6.40;;;2.97;;
71464;SDS011;59274;49.874;9.154;2022-11-15T15:34:00;8.35;;;2.90;;
71464;SDS011;59274;49.874;9.154;2022-11-15T15:36:26;9.57;;;3.75;;
71464;SDS011;59274;49.874;9.154;2022-11-15T15:38:51;9.43;;;3.93;;
71464;SDS011;59274;49.874;9.154;2022-11-15T15:41:17;9.93;;;3.87;;
71464;SDS011;59274;49.874;9.154;2022-11-15T15:43:43;8.23;;;3.72;;
71464;SDS011;59274;49.874;9.154;2022-11-15T15:46:10;9.35;;;3.80;;
71464;SDS011;59274;49.874;9.154;2022-11-15T15:48:37;8.45;;;4.00;;
71464;SDS011;59274;49.874;9.154;2022-11-15T15:51:04;11.00;;;4.27;;
71464;SDS011;59274;49.874;9.154;2022-11-15T15:53:30;11.10;;;3.92;;
71464;SDS011;59274;49.874;9.154;2022-11-15T15:55:56;8.70;;;3.85;;
71464;SDS011;59274;49.874;9.154;2022-11-15T15:58:21;8.43;;;3.87;;
71464;SDS011;59274;49.874;9.154;2022-11-15T16:00:47;10.17;;;4.00;;
71464;SDS011;59274;49.874;9.154;2022-11-15T16:03:12;8.65;;;3.80;;
71464;SDS011;59274;49.874;9.154;2022-11-15T16:05:38;10.00;;;4.77;;
71464;SDS011;59274;49.874;9.154;2022-11-15T16:08:03;9.57;;;4.80;;
71464;SDS011;59274;49.874;9.154;2022-11-15T16:10:32;9.63;;;3.95;;
71464;SDS011;59274;49.874;9.154;2022-11-15T16:13:01;10.33;;;4.40;;
71464;SDS011;59274;49.874;9.154;2022-11-15T16:15:28;10.52;;;5.00;;
71464;SDS011;59274;49.874;9.154;2022-11-15T16:17:56;10.40;;;4.55;;
71464;SDS011;59274;49.874;9.154;2022-11-15T16:23:00;8.47;;;4.23;;
71464;SDS011;59274;49.874;9.154;2022-11-15T16:25:27;9.15;;;4.00;;
71464;SDS011;59274;49.874;9.154;2022-11-15T16:27:53;9.82;;;4.65;;
71464;SDS011;59274;49.874;9.154;2022-11-15T16:30:20;8.93;;;4.27;;
71464;SDS011;59274;49.874;9.154;2022-11-15T16:32:47;9.05;;;4.35;;
71464;SDS011;59274;49.874;9.154;2022-11-15T16:35:14;10.17;;;4.63;;
71464;SDS011;59274;49.874;9.154;2022-11-15T16:37:40;10.23;;;4.68;;
71464;SDS011;59274;49.874;9.154;2022-11-15T16:42:55;13.33;;;5.20;;
71464;SDS011;59274;49.874;9.154;2022-11-15T16:45:22;11.68;;;5.00;;
71464;SDS011;59274;49.874;9.154;2022-11-15T16:47:48;10.80;;;4.70;;
71464;SDS011;59274;49.874;9.154;2022-11-15T16:50:21;14.57;;;4.97;;
71464;SDS011;59274;49.874;9.154;2022-11-15T16:52:55;12.10;;;5.43;;
71464;SDS011;59274;49.874;9.154;2022-11-15T16:55:23;12.02;;;5.07;;
71464;SDS011;59274;49.874;9.154;2022-11-15T16:57:50;13.52;;;5.00;;
71464;SDS011;59274;49.874;9.154;2022-11-15T17:00:17;10.90;;;5.07;;
71464;SDS011;59274;49.874;9.154;2022-11-15T17:02:43;10.57;;;5.00;;
71464;SDS011;59274;49.874;9.154;2022-11-15T17:05:11;11.02;;;4.65;;
71464;SDS011;59274;49.874;9.154;2022-11-15T17:07:37;11.27;;;5.03;;
71464;SDS011;59274;49.874;9.154;2022-11-15T17:10:04;11.90;;;4.72;;